sensor_id;sensor_type;location;lat;lon;timestamp;pressure;altitude;pressure_sealevel;temperature;humidity
39823;BME280;25499;53.958;10.970;2024-01-06T08:14:16;100974.47;;;-1.56;100.00
39823;BME280;25499;53.958;10.970;2024-01-06T08:16:43;100981.72;;;-1.47;100.00
39823;BME280;25499;53.958;10.970;2024-01-06T08:19:10;100979.97;;;-1.48;100.00
39823;BME280;25499;53.958;10.970;2024-01-06T08:21:36;100988.66;;;-1.45;100.00
39823;BME280;25499;53.958;10.970;2024-01-06T08:24:04;100983.84;;;-1.39;100.00
39823;BME280;25499;53.958;10.970;2024-01-06T08:26:31;100990.06;;;-1.34;100.00
39823;BME280;25499;53.958;10.970;2024-01-06T08:28:57;100992.22;;;-1.41;100.00
39823;BME280;25499;53.958;10.970;2024-01-06T08:31:26;100988.22;;;-1.36;100.00
39823;BME280;25499;53.958;10.970;2024-01-06T08:33:52;100997.81;;;-1.32;100.00
39823;BME280;25499;53.958;10.970;2024-01-06T08:36:20;100998.59;;;-1.33;100.00
39823;BME280;25499;53.958;10.970;2024-01-06T08:38:47;101014.16;;;-1.28;100.00
39823;BME280;25499;53.958;10.970;2024-01-06T08:41:14;101006.41;;;-1.30;100.00
39823;BME280;25499;53.958;10.970;2024-01-06T08:43:41;101017.88;;;-1.22;100.00
39823;BME280;25499;53.958;10.970;2024-01-06T08:46:07;101017.56;;;-1.28;100.00
39823;BME280;25499;53.958;10.970;2024-01-06T08:48:35;101020.28;;;-1.25;100.00
39823;BME280;25499;53.958;10.970;2024-01-06T08:51:03;101026.91;;;-1.28;100.00
39823;BME280;25499;53.958;10.970;2024-01-06T08:53:31;101030.19;;;-1.31;100.00
39823;BME280;25499;53.958;10.970;2024-01-06T08:55:58;101033.19;;;-1.22;100.00
39823;BME280;25499;53.958;10.970;2024-01-06T08:58:24;101039.25;;;-1.20;100.00
39823;BME280;25499;53.958;10.970;2024-01-06T09:00:53;101043.00;;;-1.13;100.00
39823;BME280;25499;53.958;10.970;2024-01-06T09:03:19;101048.72;;;-1.17;100.00
39823;BME280;25499;53.958;10.970;2024-01-06T09:05:51;101049.78;;;-1.14;100.00
39823;BME280;25499;53.958;10.970;2024-01-06T09:08:18;101049.56;;;-1.18;100.00
39823;BME280;25499;53.958;10.970;2024-01-06T09:10:45;101060.56;;;-1.19;100.00
39823;BME280;25499;53.958;10.970;2024-01-06T09:13:13;101064.22;;;-1.14;100.00
39823;BME280;25499;53.958;10.970;2024-01-06T09:15:39;101062.91;;;-1.24;100.00
39823;BME280;25499;53.958;10.970;2024-01-06T09:18:06;101067.03;;;-1.26;100.00
39823;BME280;25499;53.958;10.970;2024-01-06T09:20:33;101063.47;;;-1.29;100.00
39823;BME280;25499;53.958;10.970;2024-01-06T09:23:01;101074.56;;;-1.29;100.00
39823;BME280;25499;53.958;10.970;2024-01-06T09:25:28;101077.50;;;-1.21;100.00
39823;BME280;25499;53.958;10.970;2024-01-06T09:27:55;101083.19;;;-1.27;100.00
39823;BME280;25499;53.958;10.970;2024-01-06T09:30:22;101091.22;;;-1.19;100.00
39823;BME280;25499;53.958;10.970;2024-01-06T09:32:48;101091.03;;;-1.22;100.00
39823;BME280;25499;53.958;10.970;2024-01-06T09:35:15;101093.56;;;-1.24;100.00
39823;BME280;25499;53.958;10.970;2024-01-06T09:37:42;101090.34;;;-1.20;100.00
39823;BME280;25499;53.958;10.970;2024-01-06T09:40:12;101100.41;;;-1.23;100.00
39823;BME280;25499;53.958;10.970;2024-01-06T09:42:39;101104.13;;;-1.16;100.00
39823;BME280;25499;53.958;10.970;2024-01-06T09:45:07;101114.34;;;-1.16;100.00
39823;BME280;25499;53.958;10.970;2024-01-06T09:47:34;101112.66;;;-1.16;100.00
39823;BME280;25499;53.958;10.970;2024-01-06T09:50:02;101113.91;;;-1.25;100.00
39823;BME280;25499;53.958;10.970;2024-01-06T09:52:32;101117.00;;;-1.15;100.00
39823;BME280;25499;53.958;10.970;2024-01-06T09:55:00;101120.34;;;-1.16;100.00
39823;BME280;25499;53.958;10.970;2024-01-06T09:57:30;101115.22;;;-1.16;100.00
39823;BME280;25499;53.958;10.970;2024-01-06T09:59:57;101118.59;;;-1.17;100.00
39823;BME280;25499;53.958;10.970;2024-01-06T10:02:24;101122.88;;;-1.16;100.00
39823;BME280;25499;53.958;10.970;2024-01-06T10:04:51;101133.09;;;-1.16;100.00
39823;BME280;25499;53.958;10.970;2024-01-06T10:07:18;101130.56;;;-1.16;100.00
39823;BME280;25499;53.958;10.970;2024-01-06T10:09:45;101131.66;;;-1.10;100.00
39823;BME280;25499;53.958;10.970;2024-01-06T10:12:12;101127.38;;;-1.11;100.00
39823;BME280;25499;53.958;10.970;2024-01-06T10:14:40;101129.84;;;-1.13;100.00
39823;BME280;25499;53.958;10.970;2024-01-06T10:17:07;101131.44;;;-1.15;100.00
39823;BME280;25499;53.958;10.970;2024-01-06T10:19:34;101138.69;;;-1.06;100.00
39823;BME280;25499;53.958;10.970;2024-01-06T10:22:02;101139.13;;;-0.97;100.00
39823;BME280;25499;53.958;10.970;2024-01-06T10:24:29;101145.94;;;-0.98;100.00
39823;BME280;25499;53.958;10.970;2024-01-06T10:26:57;101143.69;;;-0.91;100.00
39823;BME280;25499;53.958;10.970;2024-01-06T10:29:25;101146.34;;;-0.90;100.00
39823;BME280;25499;53.958;10.970;2024-01-06T10:31:53;101151.03;;;-0.98;100.00
39823;BME280;25499;53.958;10.970;2024-01-06T10:34:21;101148.88;;;-0.90;100.00
39823;BME280;25499;53.958;10.970;2024-01-06T10:36:49;101149.84;;;-0.88;100.00
39823;BME280;25499;53.958;10.970;2024-01-06T10:39:17;101147.75;;;-0.95;100.00
39823;BME280;25499;53.958;10.970;2024-01-06T10:41:45;101152.84;;;-0.95;100.00
39823;BME280;25499;53.958;10.970;2024-01-06T10:44:12;101153.34;;;-1.02;100.00
39823;BME280;25499;53.958;10.970;2024-01-06T10:46:41;101153.53;;;-0.99;100.00
39823;BME280;25499;53.958;10.970;2024-01-06T10:49:11;101149.19;;;-1.00;100.00
39823;BME280;25499;53.958;10.970;2024-01-06T10:51:38;101154.97;;;-1.04;100.00
39823;BME280;25499;53.958;10.970;2024-01-06T10:54:05;101152.72;;;-0.98;100.00
39823;BME280;25499;53.958;10.970;2024-01-06T10:56:36;101156.06;;;-0.99;100.00
39823;BME280;25499;53.958;10.970;2024-01-06T10:59:03;101161.94;;;-1.02;100.00
39823;BME280;25499;53.958;10.970;2024-01-06T11:01:33;101148.56;;;-0.96;100.00
39823;BME280;25499;53.958;10.970;2024-01-06T11:04:02;101161.84;;;-1.03;100.00
39823;BME280;25499;53.958;10.970;2024-01-06T11:06:31;101163.81;;;-0.98;100.00
39823;BME280;25499;53.958;10.970;2024-01-06T11:09:03;101154.03;;;-1.06;100.00
39823;BME280;25499;53.958;10.970;2024-01-06T11:11:32;101165.34;;;-1.01;100.00
39823;BME280;25499;53.958;10.970;2024-01-06T11:14:17;101164.25;;;-1.06;100.00
39823;BME280;25499;53.958;10.970;2024-01-06T11:16:44;101158.72;;;-0.98;100.00
39823;BME280;25499;53.958;10.970;2024-01-06T11:19:44;101163.09;;;-0.95;100.00
39823;BME280;25499;53.958;10.970;2024-01-06T11:22:21;101161.97;;;-1.00;100.00
39823;BME280;25499;53.958;10.970;2024-01-06T11:24:50;101162.63;;;-1.04;100.00
39823;BME280;25499;53.958;10.970;2024-01-06T11:27:19;101170.38;;;-1.03;100.00
39823;BME280;25499;53.958;10.970;2024-01-06T11:29:46;101172.06;;;-1.03;100.00
39823;BME280;25499;53.958;10.970;2024-01-06T11:32:20;101166.56;;;-1.11;100.00
39823;BME280;25499;53.958;10.970;2024-01-06T11:34:51;101170.06;;;-1.09;100.00
39823;BME280;25499;53.958;10.970;2024-01-06T11:37:23;101170.38;;;-1.03;100.00
39823;BME280;25499;53.958;10.970;2024-01-06T11:39:50;101174.63;;;-1.03;100.00
39823;BME280;25499;53.958;10.970;2024-01-06T11:42:18;101171.75;;;-1.09;100.00
39823;BME280;25499;53.958;10.970;2024-01-06T11:44:50;101176.34;;;-1.02;100.00
39823;BME280;25499;53.958;10.970;2024-01-06T11:47:17;101175.50;;;-1.03;100.00
39823;BME280;25499;53.958;10.970;2024-01-06T11:49:53;101166.78;;;-1.06;100.00
39823;BME280;25499;53.958;10.970;2024-01-06T11:52:22;101165.97;;;-1.05;100.00
39823;BME280;25499;53.958;10.970;2024-01-06T11:54:52;101166.28;;;-0.99;100.00
39823;BME280;25499;53.958;10.970;2024-01-06T11:57:19;101164.31;;;-1.05;100.00
39823;BME280;25499;53.958;10.970;2024-01-06T11:59:47;101167.16;;;-0.99;100.00
39823;BME280;25499;53.958;10.970;2024-01-06T12:02:17;101172.09;;;-0.85;100.00
39823;BME280;25499;53.958;10.970;2024-01-06T12:04:48;101172.75;;;-0.89;100.00
39823;BME280;25499;53.958;10.970;2024-01-06T12:07:15;101172.91;;;-0.86;100.00
39823;BME280;25499;53.958;10.970;2024-01-06T12:09:44;101168.66;;;-0.86;100.00
39823;BME280;25499;53.958;10.970;2024-01-06T12:12:10;101167.47;;;-0.92;100.00
39823;BME280;25499;53.958;10.970;2024-01-06T12:14:40;101178.72;;;-0.89;100.00
39823;BME280;25499;53.958;10.970;2024-01-06T12:17:07;101178.09;;;-0.85;100.00
39823;BME280;25499;53.958;10.970;2024-01-06T12:19:34;101164.59;;;-0.99;100.00
39823;BME280;25499;53.958;10.970;2024-01-06T12:22:01;101165.09;;;-1.06;100.00
39823;BME280;25499;53.958;10.970;2024-01-06T12:24:28;101165.97;;;-1.05;100.00
39823;BME280;25499;53.958;10.970;2024-01-06T12:26:57;101177.47;;;-0.97;100.00
39823;BME280;25499;53.958;10.970;2024-01-06T12:29:26;101169.34;;;-1.06;100.00
39823;BME280;25499;53.958;10.970;2024-01-06T12:31:55;101178.28;;;-0.98;100.00
39823;BME280;25499;53.958;10.970;2024-01-06T12:34:22;101175.31;;;-1.06;100.00
39823;BME280;25499;53.958;10.970;2024-01-06T12:36:52;101181.63;;;-0.99;100.00
39823;BME280;25499;53.958;10.970;2024-01-06T12:39:19;101180.69;;;-1.01;100.00
39823;BME280;25499;53.958;10.970;2024-01-06T12:41:46;101186.41;;;-1.05;100.00
39823;BME280;25499;53.958;10.970;2024-01-06T12:44:14;101183.31;;;-1.00;100.00
39823;BME280;25499;53.958;10.970;2024-01-06T12:46:41;101195.28;;;-0.99;100.00
39823;BME280;25499;53.958;10.970;2024-01-06T12:49:08;101193.06;;;-1.09;100.00
39823;BME280;25499;53.958;10.970;2024-01-06T12:51:35;101190.09;;;-1.00;100.00
39823;BME280;25499;53.958;10.970;2024-01-06T12:54:02;101191.59;;;-1.04;100.00
39823;BME280;25499;53.958;10.970;2024-01-06T12:56:29;101199.34;;;-1.02;100.00
39823;BME280;25499;53.958;10.970;2024-01-06T12:58:56;101197.63;;;-1.03;100.00
39823;BME280;25499;53.958;10.970;2024-01-06T13:01:24;101205.75;;;-0.94;100.00
39823;BME280;25499;53.958;10.970;2024-01-06T13:03:51;101199.44;;;-1.01;100.00
39823;BME280;25499;53.958;10.970;2024-01-06T13:06:19;101200.00;;;-1.06;100.00
39823;BME280;25499;53.958;10.970;2024-01-06T13:08:46;101202.00;;;-1.01;100.00
39823;BME280;25499;53.958;10.970;2024-01-06T13:11:13;101207.84;;;-1.03;100.00
39823;BME280;25499;53.958;10.970;2024-01-06T13:13:40;101196.78;;;-1.02;100.00
39823;BME280;25499;53.958;10.970;2024-01-06T13:16:06;101206.72;;;-1.08;100.00
39823;BME280;25499;53.958;10.970;2024-01-06T13:18:36;101212.44;;;-0.96;100.00
39823;BME280;25499;53.958;10.970;2024-01-06T13:21:03;101212.88;;;-1.05;100.00
39823;BME280;25499;53.958;10.970;2024-01-06T13:23:30;101209.28;;;-1.08;100.00
39823;BME280;25499;53.958;10.970;2024-01-06T13:25:57;101224.13;;;-1.01;100.00
39823;BME280;25499;53.958;10.970;2024-01-06T13:28:24;101209.97;;;-0.95;100.00
39823;BME280;25499;53.958;10.970;2024-01-06T13:30:50;101210.69;;;-0.97;100.00
39823;BME280;25499;53.958;10.970;2024-01-06T13:33:17;101209.50;;;-1.04;100.00
39823;BME280;25499;53.958;10.970;2024-01-06T13:35:45;101218.44;;;-0.96;100.00
39823;BME280;25499;53.958;10.970;2024-01-06T13:38:12;101217.47;;;-0.98;100.00
39823;BME280;25499;53.958;10.970;2024-01-06T13:40:39;101224.91;;;-1.02;100.00
39823;BME280;25499;53.958;10.970;2024-01-06T13:43:06;101230.09;;;-1.01;100.00
39823;BME280;25499;53.958;10.970;2024-01-06T13:45:34;101231.69;;;-1.03;100.00
39823;BME280;25499;53.958;10.970;2024-01-06T13:48:01;101239.19;;;-1.06;100.00
39823;BME280;25499;53.958;10.970;2024-01-06T13:50:28;101242.09;;;-1.00;100.00
39823;BME280;25499;53.958;10.970;2024-01-06T13:52:56;101242.16;;;-0.98;100.00
39823;BME280;25499;53.958;10.970;2024-01-06T13:55:23;101245.91;;;-1.08;100.00
39823;BME280;25499;53.958;10.970;2024-01-06T13:57:50;101239.13;;;-1.07;100.00
39823;BME280;25499;53.958;10.970;2024-01-06T14:00:17;101247.72;;;-1.05;100.00
39823;BME280;25499;53.958;10.970;2024-01-06T14:02:46;101244.81;;;-1.13;100.00
39823;BME280;25499;53.958;10.970;2024-01-06T14:05:13;101246.63;;;-1.10;100.00
39823;BME280;25499;53.958;10.970;2024-01-06T14:07:40;101248.72;;;-1.03;100.00
39823;BME280;25499;53.958;10.970;2024-01-06T14:10:12;101246.00;;;-1.06;100.00
39823;BME280;25499;53.958;10.970;2024-01-06T14:12:39;101249.03;;;-1.14;100.00
39823;BME280;25499;53.958;10.970;2024-01-06T14:15:07;101261.16;;;-1.09;100.00
39823;BME280;25499;53.958;10.970;2024-01-06T14:17:34;101264.91;;;-1.03;100.00
39823;BME280;25499;53.958;10.970;2024-01-06T14:20:01;101271.31;;;-1.11;100.00
39823;BME280;25499;53.958;10.970;2024-01-06T14:22:29;101266.72;;;-1.00;100.00
39823;BME280;25499;53.958;10.970;2024-01-06T14:24:56;101267.22;;;-1.07;100.00
39823;BME280;25499;53.958;10.970;2024-01-06T14:27:24;101266.53;;;-1.05;100.00
39823;BME280;25499;53.958;10.970;2024-01-06T14:29:51;101267.06;;;-1.10;100.00
39823;BME280;25499;53.958;10.970;2024-01-06T14:32:21;101269.94;;;-1.04;100.00
39823;BME280;25499;53.958;10.970;2024-01-06T14:34:49;101267.78;;;-1.13;100.00
39823;BME280;25499;53.958;10.970;2024-01-06T14:37:16;101265.31;;;-1.11;100.00
39823;BME280;25499;53.958;10.970;2024-01-06T14:39:43;101272.13;;;-1.12;100.00
39823;BME280;25499;53.958;10.970;2024-01-06T14:42:09;101279.13;;;-1.08;100.00
39823;BME280;25499;53.958;10.970;2024-01-06T14:44:37;101281.78;;;-1.06;100.00
39823;BME280;25499;53.958;10.970;2024-01-06T14:47:05;101267.88;;;-1.11;100.00
39823;BME280;25499;53.958;10.970;2024-01-06T14:49:32;101271.63;;;-1.05;100.00
39823;BME280;25499;53.958;10.970;2024-01-06T14:51:59;101274.72;;;-1.10;100.00
39823;BME280;25499;53.958;10.970;2024-01-06T14:54:27;101279.91;;;-1.09;100.00
39823;BME280;25499;53.958;10.970;2024-01-06T14:56:56;101268.19;;;-1.05;100.00
39823;BME280;25499;53.958;10.970;2024-01-06T14:59:23;101279.59;;;-0.99;100.00
39823;BME280;25499;53.958;10.970;2024-01-06T15:01:51;101275.22;;;-1.01;100.00
39823;BME280;25499;53.958;10.970;2024-01-06T15:04:18;101273.38;;;-1.04;100.00
39823;BME280;25499;53.958;10.970;2024-01-06T15:06:45;101261.56;;;-1.02;100.00
39823;BME280;25499;53.958;10.970;2024-01-06T15:09:12;101260.06;;;-0.98;100.00
39823;BME280;25499;53.958;10.970;2024-01-06T15:11:39;101257.00;;;-0.91;100.00
39823;BME280;25499;53.958;10.970;2024-01-06T15:14:06;101259.94;;;-0.83;100.00
39823;BME280;25499;53.958;10.970;2024-01-06T15:16:34;101259.06;;;-0.84;100.00
39823;BME280;25499;53.958;10.970;2024-01-06T15:19:03;101259.00;;;-0.85;100.00
39823;BME280;25499;53.958;10.970;2024-01-06T15:21:33;101256.44;;;-0.85;100.00
39823;BME280;25499;53.958;10.970;2024-01-06T15:24:02;101249.66;;;-0.85;100.00
39823;BME280;25499;53.958;10.970;2024-01-06T15:26:29;101257.25;;;-0.86;100.00
39823;BME280;25499;53.958;10.970;2024-01-06T15:28:56;101253.66;;;-0.90;100.00
39823;BME280;25499;53.958;10.970;2024-01-06T15:31:26;101268.50;;;-0.83;100.00
39823;BME280;25499;53.958;10.970;2024-01-06T15:33:52;101264.03;;;-0.87;100.00
39823;BME280;25499;53.958;10.970;2024-01-06T15:36:21;101272.00;;;-0.81;100.00
39823;BME280;25499;53.958;10.970;2024-01-06T15:38:47;101274.72;;;-0.78;100.00
39823;BME280;25499;53.958;10.970;2024-01-06T15:41:14;101272.09;;;-0.79;100.00
39823;BME280;25499;53.958;10.970;2024-01-06T15:43:41;101274.91;;;-0.74;100.00
39823;BME280;25499;53.958;10.970;2024-01-06T15:46:08;101267.59;;;-0.83;100.00
39823;BME280;25499;53.958;10.970;2024-01-06T15:48:35;101272.50;;;-0.88;100.00
39823;BME280;25499;53.958;10.970;2024-01-06T15:51:02;101271.56;;;-0.90;100.00
39823;BME280;25499;53.958;10.970;2024-01-06T15:53:31;101272.66;;;-0.85;100.00
39823;BME280;25499;53.958;10.970;2024-01-06T15:55:59;101276.00;;;-0.86;100.00
39823;BME280;25499;53.958;10.970;2024-01-06T15:58:26;101270.75;;;-0.89;100.00
39823;BME280;25499;53.958;10.970;2024-01-06T16:00:52;101270.13;;;-0.85;100.00
39823;BME280;25499;53.958;10.970;2024-01-06T16:03:19;101269.28;;;-0.84;100.00
39823;BME280;25499;53.958;10.970;2024-01-06T16:05:46;101264.75;;;-0.89;100.00
39823;BME280;25499;53.958;10.970;2024-01-06T16:08:13;101268.09;;;-0.90;100.00
39823;BME280;25499;53.958;10.970;2024-01-06T16:10:42;101272.66;;;-0.85;100.00
39823;BME280;25499;53.958;10.970;2024-01-06T16:13:09;101257.16;;;-0.88;100.00
39823;BME280;25499;53.958;10.970;2024-01-06T16:15:36;101264.03;;;-0.87;100.00
39823;BME280;25499;53.958;10.970;2024-01-06T16:18:03;101265.78;;;-0.86;100.00
39823;BME280;25499;53.958;10.970;2024-01-06T16:20:30;101259.66;;;-0.89;100.00
39823;BME280;25499;53.958;10.970;2024-01-06T16:22:58;101262.19;;;-0.89;100.00
39823;BME280;25499;53.958;10.970;2024-01-06T16:25:24;101258.91;;;-0.87;100.00
39823;BME280;25499;53.958;10.970;2024-01-06T16:27:53;101260.69;;;-0.86;100.00
39823;BME280;25499;53.958;10.970;2024-01-06T16:30:20;101260.50;;;-0.89;100.00
39823;BME280;25499;53.958;10.970;2024-01-06T16:32:47;101258.78;;;-0.90;100.00
39823;BME280;25499;53.958;10.970;2024-01-06T16:35:14;101257.09;;;-0.89;100.00
39823;BME280;25499;53.958;10.970;2024-01-06T16:37:41;101249.97;;;-0.95;100.00
39823;BME280;25499;53.958;10.970;2024-01-06T16:40:09;101259.81;;;-0.86;100.00
39823;BME280;25499;53.958;10.970;2024-01-06T16:42:36;101257.47;;;-0.82;100.00
39823;BME280;25499;53.958;10.970;2024-01-06T16:45:05;101247.81;;;-0.87;100.00
39823;BME280;25499;53.958;10.970;2024-01-06T16:47:32;101243.44;;;-0.90;100.00
39823;BME280;25499;53.958;10.970;2024-01-06T16:49:59;101246.06;;;-0.88;100.00
39823;BME280;25499;53.958;10.970;2024-01-06T16:52:26;101238.00;;;-0.96;100.00
39823;BME280;25499;53.958;10.970;2024-01-06T16:54:53;101238.97;;;-0.94;100.00
39823;BME280;25499;53.958;10.970;2024-01-06T16:57:19;101239.81;;;-0.94;100.00
39823;BME280;25499;53.958;10.970;2024-01-06T16:59:46;101240.72;;;-0.93;100.00
39823;BME280;25499;53.958;10.970;2024-01-06T17:02:15;101242.94;;;-0.99;100.00
39823;BME280;25499;53.958;10.970;2024-01-06T17:04:42;101243.97;;;-0.96;100.00
39823;BME280;25499;53.958;10.970;2024-01-06T17:07:08;101244.72;;;-0.98;100.00
39823;BME280;25499;53.958;10.970;2024-01-06T17:09:35;101252.94;;;-0.87;100.00
39823;BME280;25499;53.958;10.970;2024-01-06T17:12:03;101244.94;;;-0.94;100.00
39823;BME280;25499;53.958;10.970;2024-01-06T17:14:29;101235.28;;;-0.99;100.00
39823;BME280;25499;53.958;10.970;2024-01-06T17:16:56;101249.34;;;-0.91;100.00
39823;BME280;25499;53.958;10.970;2024-01-06T17:19:25;101231.28;;;-0.94;100.00
39823;BME280;25499;53.958;10.970;2024-01-06T17:21:52;101232.97;;;-0.95;100.00
39823;BME280;25499;53.958;10.970;2024-01-06T17:24:18;101234.50;;;-0.98;100.00
39823;BME280;25499;53.958;10.970;2024-01-06T17:26:45;101229.22;;;-1.01;100.00
39823;BME280;25499;53.958;10.970;2024-01-06T17:29:12;101230.34;;;-0.96;100.00
39823;BME280;25499;53.958;10.970;2024-01-06T17:31:40;101221.22;;;-0.91;100.00
39823;BME280;25499;53.958;10.970;2024-01-06T17:34:07;101225.81;;;-1.02;100.00
39823;BME280;25499;53.958;10.970;2024-01-06T17:36:35;101220.75;;;-1.00;100.00
39823;BME280;25499;53.958;10.970;2024-01-06T17:39:02;101230.25;;;-0.98;100.00
39823;BME280;25499;53.958;10.970;2024-01-06T17:41:30;101221.66;;;-1.00;100.00
39823;BME280;25499;53.958;10.970;2024-01-06T17:43:57;101226.59;;;-1.03;100.00
39823;BME280;25499;53.958;10.970;2024-01-06T17:46:24;101224.03;;;-1.03;100.00
39823;BME280;25499;53.958;10.970;2024-01-06T17:48:51;101227.72;;;-0.98;100.00
39823;BME280;25499;53.958;10.970;2024-01-06T17:51:18;101224.41;;;-0.95;100.00
39823;BME280;25499;53.958;10.970;2024-01-06T17:53:49;101217.03;;;-1.07;100.00
39823;BME280;25499;53.958;10.970;2024-01-06T17:56:16;101228.66;;;-0.96;100.00
39823;BME280;25499;53.958;10.970;2024-01-06T17:58:43;101233.69;;;-0.97;100.00
39823;BME280;25499;53.958;10.970;2024-01-06T18:01:10;101225.84;;;-1.00;100.00
39823;BME280;25499;53.958;10.970;2024-01-06T18:03:38;101210.41;;;-1.03;100.00
39823;BME280;25499;53.958;10.970;2024-01-06T18:06:05;101225.72;;;-1.03;100.00
39823;BME280;25499;53.958;10.970;2024-01-06T18:08:32;101239.44;;;-1.01;100.00
39823;BME280;25499;53.958;10.970;2024-01-06T18:11:00;101219.50;;;-1.08;100.00
39823;BME280;25499;53.958;10.970;2024-01-06T18:13:27;101237.75;;;-1.01;100.00
39823;BME280;25499;53.958;10.970;2024-01-06T18:15:53;101237.84;;;-0.99;100.00
39823;BME280;25499;53.958;10.970;2024-01-06T18:18:20;101229.81;;;-1.07;100.00
39823;BME280;25499;53.958;10.970;2024-01-06T18:20:47;101224.91;;;-1.02;100.00
39823;BME280;25499;53.958;10.970;2024-01-06T18:23:14;101222.06;;;-1.08;100.00
39823;BME280;25499;53.958;10.970;2024-01-06T18:25:40;101223.72;;;-1.09;100.00
39823;BME280;25499;53.958;10.970;2024-01-06T18:28:09;101224.28;;;-1.15;100.00
39823;BME280;25499;53.958;10.970;2024-01-06T18:30:35;101233.84;;;-1.10;100.00
39823;BME280;25499;53.958;10.970;2024-01-06T18:33:02;101230.50;;;-1.09;100.00
39823;BME280;25499;53.958;10.970;2024-01-06T18:35:29;101236.72;;;-1.04;100.00
39823;BME280;25499;53.958;10.970;2024-01-06T18:37:56;101226.25;;;-1.09;100.00
39823;BME280;25499;53.958;10.970;2024-01-06T18:40:23;101234.09;;;-1.06;100.00
39823;BME280;25499;53.958;10.970;2024-01-06T18:42:50;101231.47;;;-1.07;100.00
39823;BME280;25499;53.958;10.970;2024-01-06T18:45:18;101219.00;;;-1.18;100.00
39823;BME280;25499;53.958;10.970;2024-01-06T18:47:45;101238.94;;;-1.10;100.00
39823;BME280;25499;53.958;10.970;2024-01-06T18:50:12;101240.03;;;-1.07;100.00
39823;BME280;25499;53.958;10.970;2024-01-06T18:52:38;101239.78;;;-1.11;100.00
39823;BME280;25499;53.958;10.970;2024-01-06T18:55:06;101227.69;;;-1.14;100.00
39823;BME280;25499;53.958;10.970;2024-01-06T18:57:33;101235.44;;;-1.13;100.00
39823;BME280;25499;53.958;10.970;2024-01-06T19:00:00;101233.28;;;-1.21;100.00
39823;BME280;25499;53.958;10.970;2024-01-06T19:02:28;101244.09;;;-1.27;100.00
39823;BME280;25499;53.958;10.970;2024-01-06T19:04:55;101251.97;;;-1.22;100.00
39823;BME280;25499;53.958;10.970;2024-01-06T19:07:22;101270.66;;;-1.23;100.00
39823;BME280;25499;53.958;10.970;2024-01-06T19:09:49;101270.97;;;-1.17;100.00
39823;BME280;25499;53.958;10.970;2024-01-06T19:12:16;101280.31;;;-1.18;100.00
39823;BME280;25499;53.958;10.970;2024-01-06T19:14:43;101272.34;;;-1.24;100.00
39823;BME280;25499;53.958;10.970;2024-01-06T19:17:11;101263.56;;;-1.29;100.00
39823;BME280;25499;53.958;10.970;2024-01-06T19:19:39;101266.16;;;-1.27;100.00
39823;BME280;25499;53.958;10.970;2024-01-06T19:22:06;101270.31;;;-1.29;100.00
39823;BME280;25499;53.958;10.970;2024-01-06T19:24:33;101284.47;;;-1.20;100.00
39823;BME280;25499;53.958;10.970;2024-01-06T19:27:00;101292.13;;;-1.20;100.00
39823;BME280;25499;53.958;10.970;2024-01-06T19:29:27;101301.00;;;-1.13;100.00
39823;BME280;25499;53.958;10.970;2024-01-06T19:31:54;101296.28;;;-1.22;100.00
39823;BME280;25499;53.958;10.970;2024-01-06T19:34:21;101297.88;;;-1.24;100.00
39823;BME280;25499;53.958;10.970;2024-01-06T19:36:50;101308.03;;;-1.25;100.00
39823;BME280;25499;53.958;10.970;2024-01-06T19:39:17;101317.34;;;-1.26;100.00
39823;BME280;25499;53.958;10.970;2024-01-06T19:41:43;101323.25;;;-1.27;100.00
39823;BME280;25499;53.958;10.970;2024-01-06T19:44:10;101328.09;;;-1.32;100.00
39823;BME280;25499;53.958;10.970;2024-01-06T19:46:37;101336.03;;;-1.27;100.00
39823;BME280;25499;53.958;10.970;2024-01-06T19:49:04;101331.63;;;-1.29;100.00
39823;BME280;25499;53.958;10.970;2024-01-06T19:51:31;101349.84;;;-1.23;100.00
39823;BME280;25499;53.958;10.970;2024-01-06T19:53:59;101350.53;;;-1.26;100.00
39823;BME280;25499;53.958;10.970;2024-01-06T19:56:27;101353.78;;;-1.14;100.00
39823;BME280;25499;53.958;10.970;2024-01-06T19:58:54;101345.53;;;-1.24;100.00
39823;BME280;25499;53.958;10.970;2024-01-06T20:01:20;101352.47;;;-1.22;100.00
39823;BME280;25499;53.958;10.970;2024-01-06T20:03:47;101340.78;;;-1.33;100.00
39823;BME280;25499;53.958;10.970;2024-01-06T20:06:14;101345.53;;;-1.24;100.00
39823;BME280;25499;53.958;10.970;2024-01-06T20:08:41;101357.25;;;-1.28;100.00
39823;BME280;25499;53.958;10.970;2024-01-06T20:11:09;101353.34;;;-1.21;100.00
39823;BME280;25499;53.958;10.970;2024-01-06T20:13:36;101354.00;;;-1.25;100.00
39823;BME280;25499;53.958;10.970;2024-01-06T20:16:03;101357.75;;;-1.19;100.00
39823;BME280;25499;53.958;10.970;2024-01-06T20:18:30;101356.09;;;-1.18;100.00
39823;BME280;25499;53.958;10.970;2024-01-06T20:20:57;101355.50;;;-1.29;100.00
39823;BME280;25499;53.958;10.970;2024-01-06T20:23:24;101366.13;;;-1.21;100.00
39823;BME280;25499;53.958;10.970;2024-01-06T20:25:51;101353.81;;;-1.28;100.00
39823;BME280;25499;53.958;10.970;2024-01-06T20:28:19;101359.00;;;-1.27;100.00
39823;BME280;25499;53.958;10.970;2024-01-06T20:30:46;101347.50;;;-1.35;100.00
39823;BME280;25499;53.958;10.970;2024-01-06T20:33:13;101345.13;;;-1.32;100.00
39823;BME280;25499;53.958;10.970;2024-01-06T20:35:42;101339.84;;;-1.35;100.00
39823;BME280;25499;53.958;10.970;2024-01-06T20:38:09;101343.72;;;-1.42;100.00
39823;BME280;25499;53.958;10.970;2024-01-06T20:40:36;101343.00;;;-1.39;100.00
39823;BME280;25499;53.958;10.970;2024-01-06T20:43:03;101335.97;;;-1.43;100.00
39823;BME280;25499;53.958;10.970;2024-01-06T20:45:32;101347.88;;;-1.44;100.00